Time;durP1;ratioP1;P1;durP2;ratioP2;P2;SDS_P1;SDS_P2;PMS_P1;PMS_P2;Temp;Humidity;BMP_temperature;BMP_pressure;BME280_temperature;BME280_humidity;BME280_pressure;Samples;Min_cycle;Max_cycle;Signal;HPM_P1;HPM_P2
2022/01/26 00:07:23;;;;;;;;;;;25.60;83.70;;;;;;5076150;28;20006;-55
2022/01/26 00:09:50;;;;;;;;;;;25.60;83.50;;;;;;5075894;28;19952;-59
2022/01/26 00:12:16;;;;;;;;;;;25.80;83.40;;;;;;5075975;28;19958;-57
2022/01/26 00:14:43;;;;;;;;;;;25.80;82.90;;;;;;5075147;28;19915;-58
2022/01/26 00:17:11;;;;;;;;;;;25.90;82.30;;;;;;5075339;28;19904;-59
2022/01/26 00:19:57;;;;;;;;;;;25.90;82.10;;;;;;5075122;28;19991;-56
2022/01/26 00:38:42;;;;;;;;;;;26.10;81.30;;;;;;5075898;28;19911;-59
2022/01/26 00:41:13;;;;;;;;;;;26.20;81.30;;;;;;5075114;28;19960;-58
2022/01/26 00:43:44;;;;;;;;;;;26.20;81.60;;;;;;5074574;28;19950;-48
2022/01/26 00:46:12;;;;;;;;;;;26.30;81.60;;;;;;5073469;28;20321;-57
2022/01/26 00:48:39;;;;;;;;;;;26.20;81.50;;;;;;5075197;28;19920;-57
2022/01/26 00:51:06;;;;;;;;;;;26.30;81.50;;;;;;5074878;28;20021;-56
2022/01/26 00:53:42;;;;;;;;;;;26.40;80.10;;;;;;5074788;28;19908;-62
2022/01/26 00:56:09;;;;;;;;;;;26.40;80.20;;;;;;5074864;28;19928;-64
2022/01/26 00:58:41;;;;;;;;;;;26.40;80.70;;;;;;5075370;28;20297;-60
2022/01/26 01:01:08;;;;;;;;;;;26.50;80.00;;;;;;5075191;28;20327;-58
2022/01/26 01:03:38;;;;;;;;;;;26.50;80.90;;;;;;5074057;28;19915;-62
2022/01/26 01:06:29;;;;;;;;;;;26.50;79.80;;;;;;5075269;28;19905;-59
2022/01/26 01:08:54;;;;;;;;;;;26.50;80.80;;;;;;5074840;28;19905;-61
2022/01/26 01:11:21;;;;;;;;;;;26.50;80.40;;;;;;5074658;28;19919;-59
2022/01/26 01:13:48;;;;;;;;;;;26.50;80.50;;;;;;5073249;28;20006;-61
2022/01/26 01:16:20;;;;;;;;;;;26.50;78.90;;;;;;5073953;28;19927;-62
2022/01/26 01:18:56;;;;;;;;;;;26.50;80.60;;;;;;5075125;28;19905;-59
2022/01/26 01:29:26;;;;;;;;;;;26.60;79.00;;;;;;5074672;28;19927;-57
2022/01/26 01:31:59;;;;;;;;;;;26.60;79.60;;;;;;5074281;28;20377;-61
2022/01/26 01:34:29;;;;;;;;;;;26.60;79.20;;;;;;5074795;28;19904;-57
2022/01/26 01:37:02;;;;;;;;;;;26.50;81.30;;;;;;5075172;28;20403;-62
2022/01/26 01:39:36;;;;;;;;;;;26.40;81.80;;;;;;5074596;28;19904;-65
2022/01/26 01:42:04;;;;;;;;;;;26.50;80.60;;;;;;5072853;28;19904;-58
2022/01/26 01:44:31;;;;;;;;;;;26.50;81.60;;;;;;5074339;28;19936;-63
2022/01/26 01:46:58;;;;;;;;;;;26.50;80.30;;;;;;5076011;28;19911;-61
2022/01/26 01:49:25;;;;;;;;;;;26.60;81.50;;;;;;5075980;28;19904;-61
2022/01/26 01:51:57;;;;;;;;;;;26.60;81.40;;;;;;5075264;28;19999;-56
2022/01/26 01:54:24;;;;;;;;;;;26.60;80.80;;;;;;5074679;28;20023;-59
2022/01/26 01:56:55;;;;;;;;;;;26.70;80.60;;;;;;5073760;28;20015;-60
2022/01/26 01:59:23;;;;;;;;;;;26.70;80.50;;;;;;5073460;28;19912;-59
2022/01/26 02:01:50;;;;;;;;;;;26.70;80.70;;;;;;5073543;28;19998;-60
2022/01/26 02:04:16;;;;;;;;;;;26.70;80.50;;;;;;5073696;28;19904;-58
2022/01/26 02:06:50;;;;;;;;;;;26.80;80.70;;;;;;5073791;28;20424;-50
2022/01/26 02:09:17;;;;;;;;;;;26.80;79.10;;;;;;5073840;28;19936;-58
2022/01/26 02:11:47;;;;;;;;;;;26.80;79.70;;;;;;5073207;28;19935;-53
2022/01/26 02:14:24;;;;;;;;;;;26.80;79.90;;;;;;5072810;28;19905;-57
2022/01/26 02:52:47;;;;;;;;;;;27.10;80.10;;;;;;5073230;28;19935;-58
2022/01/26 02:55:31;;;;;;;;;;;27.20;79.40;;;;;;5072437;28;19920;-60
2022/01/26 03:03:28;;;;;;;;;;;27.30;78.60;;;;;;5072487;28;20045;-58
2022/01/26 03:06:03;;;;;;;;;;;27.20;79.30;;;;;;5072265;28;20111;-57
2022/01/26 03:08:37;;;;;;;;;;;27.30;77.60;;;;;;5072408;28;19904;-55
2022/01/26 03:11:14;;;;;;;;;;;27.30;77.80;;;;;;5072481;28;20342;-57
2022/01/26 03:13:47;;;;;;;;;;;27.20;78.40;;;;;;5072541;28;19991;-56
2022/01/26 03:16:22;;;;;;;;;;;27.20;77.60;;;;;;5072358;28;19905;-51
2022/01/26 03:29:54;;;;;;;;;;;27.30;78.50;;;;;;5072930;28;19911;-56
2022/01/26 03:35:14;;;;;;;;;;;27.30;78.80;;;;;;5073196;28;19931;-54
2022/01/26 03:37:49;;;;;;;;;;;27.20;79.30;;;;;;5072154;28;19904;-53
2022/01/26 03:40:16;;;;;;;;;;;27.30;78.90;;;;;;5076508;28;19920;-58
2022/01/26 03:42:43;;;;;;;;;;;27.30;77.70;;;;;;5076632;28;19904;-60
2022/01/26 03:45:10;;;;;;;;;;;27.40;77.60;;;;;;5075072;28;19904;-55
2022/01/26 03:47:37;;;;;;;;;;;27.30;76.60;;;;;;5076433;28;19905;-60
2022/01/26 03:50:04;;;;;;;;;;;27.30;78.20;;;;;;5076436;28;20338;-56
2022/01/26 03:52:31;;;;;;;;;;;27.30;77.80;;;;;;5076651;28;20266;-59
2022/01/26 03:54:57;;;;;;;;;;;27.30;77.70;;;;;;5076141;28;19981;-55
2022/01/26 03:57:24;;;;;;;;;;;27.30;77.70;;;;;;5076314;28;19911;-57
2022/01/26 03:59:51;;;;;;;;;;;27.20;77.30;;;;;;5076631;28;19905;-56
2022/01/26 04:02:18;;;;;;;;;;;27.20;78.20;;;;;;5076682;28;19911;-58
2022/01/26 04:04:50;;;;;;;;;;;27.20;77.10;;;;;;5076467;28;20319;-54
2022/01/26 04:07:17;;;;;;;;;;;27.20;77.40;;;;;;5076582;28;19912;-58
2022/01/26 04:09:43;;;;;;;;;;;27.20;77.70;;;;;;5076735;28;20274;-59
2022/01/26 04:12:10;;;;;;;;;;;27.20;79.00;;;;;;5075774;28;19916;-57
2022/01/26 04:14:37;;;;;;;;;;;27.20;78.60;;;;;;5076069;28;19911;-57
2022/01/26 04:17:04;;;;;;;;;;;27.20;77.90;;;;;;5074395;28;20373;-59
2022/01/26 04:19:34;;;;;;;;;;;27.20;79.10;;;;;;5075755;28;19905;-60
2022/01/26 04:24:57;;;;;;;;;;;27.20;78.90;;;;;;5066821;28;20259;-57
2022/01/26 04:27:34;;;;;;;;;;;27.20;78.40;;;;;;5075653;28;20427;-61
2022/01/26 04:30:01;;;;;;;;;;;27.10;80.10;;;;;;5075119;28;19905;-58
2022/01/26 04:32:28;;;;;;;;;;;27.10;78.80;;;;;;5075529;28;19912;-58
2022/01/26 04:34:56;;;;;;;;;;;27.10;78.30;;;;;;5075293;28;19950;-58
2022/01/26 04:37:42;;;;;;;;;;;27.20;78.10;;;;;;5075264;28;19912;-57
2022/01/26 04:40:12;;;;;;;;;;;27.10;78.50;;;;;;5073466;28;19912;-52
2022/01/26 04:45:09;;;;;;;;;;;27.10;80.00;;;;;;5074974;28;19948;-55
2022/01/26 04:47:37;;;;;;;;;;;27.10;78.30;;;;;;5076084;28;19939;-60
2022/01/26 04:50:04;;;;;;;;;;;27.10;78.40;;;;;;5075365;28;19951;-58
2022/01/26 04:52:31;;;;;;;;;;;27.10;78.30;;;;;;5075654;28;19912;-61
2022/01/26 04:54:57;;;;;;;;;;;27.10;78.40;;;;;;5075124;28;20223;-58
2022/01/26 04:57:24;;;;;;;;;;;27.10;79.60;;;;;;5075220;28;19908;-58
2022/01/26 04:59:51;;;;;;;;;;;27.10;79.60;;;;;;5074745;28;19908;-55
2022/01/26 05:02:18;;;;;;;;;;;27.10;78.00;;;;;;5074804;28;19940;-56
2022/01/26 05:04:45;;;;;;;;;;;27.10;78.10;;;;;;5074894;28;20259;-55
2022/01/26 05:07:11;;;;;;;;;;;27.10;78.90;;;;;;5075083;28;19912;-59
2022/01/26 05:09:39;;;;;;;;;;;27.10;79.20;;;;;;5074920;28;20055;-59
2022/01/26 05:12:06;;;;;;;;;;;27.10;79.00;;;;;;5074939;28;19912;-54
2022/01/26 05:14:33;;;;;;;;;;;27.10;78.00;;;;;;5074996;28;19915;-58
2022/01/26 05:17:00;;;;;;;;;;;27.10;79.90;;;;;;5075013;28;19904;-59
2022/01/26 05:19:27;;;;;;;;;;;27.10;77.00;;;;;;5075311;28;19987;-57
2022/01/26 05:21:54;;;;;;;;;;;27.10;77.30;;;;;;5074770;28;19904;-58
2022/01/26 05:24:24;;;;;;;;;;;27.10;77.40;;;;;;5075193;28;19936;-55
2022/01/26 05:26:51;;;;;;;;;;;27.20;78.00;;;;;;5074799;28;19911;-58
2022/01/26 05:29:17;;;;;;;;;;;27.10;79.60;;;;;;5074864;28;19908;-55
2022/01/26 05:31:44;;;;;;;;;;;27.10;79.50;;;;;;5074721;28;19920;-56
2022/01/26 05:34:11;;;;;;;;;;;27.00;80.10;;;;;;5074519;28;20007;-60
2022/01/26 05:36:38;;;;;;;;;;;27.00;76.10;;;;;;5073565;28;19904;-58
2022/01/26 05:39:05;;;;;;;;;;;27.10;77.80;;;;;;5073499;28;19994;-58
2022/01/26 05:41:31;;;;;;;;;;;27.10;78.30;;;;;;5074647;28;19954;-60
2022/01/26 05:43:59;;;;;;;;;;;27.00;79.20;;;;;;5073940;28;20380;-58
2022/01/26 05:46:37;;;;;;;;;;;27.00;79.60;;;;;;5074224;28;19904;-55
2022/01/26 05:49:04;;;;;;;;;;;27.00;78.20;;;;;;5074703;28;19905;-59
2022/01/26 05:51:34;;;;;;;;;;;27.00;80.10;;;;;;5074588;28;19991;-53
2022/01/26 05:54:05;;;;;;;;;;;26.90;80.20;;;;;;5073037;28;19938;-56
2022/01/26 05:56:32;;;;;;;;;;;26.90;80.50;;;;;;5074105;28;19923;-61
2022/01/26 05:58:58;;;;;;;;;;;26.90;79.90;;;;;;5072966;28;19912;-60
2022/01/26 06:01:26;;;;;;;;;;;26.90;79.80;;;;;;5074208;28;19905;-59
2022/01/26 06:03:53;;;;;;;;;;;26.90;79.70;;;;;;5075042;28;19904;-61
2022/01/26 06:06:19;;;;;;;;;;;26.90;79.70;;;;;;5075046;28;19904;-58
2022/01/26 06:08:46;;;;;;;;;;;26.90;80.30;;;;;;5074001;28;19908;-56
2022/01/26 06:11:13;;;;;;;;;;;26.90;79.80;;;;;;5075573;28;20015;-60
2022/01/26 06:13:40;;;;;;;;;;;26.80;73.30;;;;;;5073907;28;20368;-61
2022/01/26 06:16:06;;;;;;;;;;;26.80;67.60;;;;;;5073737;28;19911;-63
2022/01/26 06:18:36;;;;;;;;;;;26.60;80.60;;;;;;5072910;28;20270;-60
2022/01/26 06:21:03;;;;;;;;;;;26.60;71.80;;;;;;5073920;28;19904;-60
2022/01/26 06:23:29;;;;;;;;;;;26.60;79.30;;;;;;5074013;28;19958;-59
2022/01/26 06:25:57;;;;;;;;;;;26.60;80.50;;;;;;5073979;28;19932;-59
2022/01/26 06:28:27;;;;;;;;;;;26.50;80.20;;;;;;5073583;28;19923;-60
2022/01/26 06:30:55;;;;;;;;;;;26.70;80.20;;;;;;5073732;28;19908;-61
2022/01/26 06:33:22;;;;;;;;;;;25.80;68.00;;;;;;5055706;28;20251;-61
2022/01/26 06:35:49;;;;;;;;;;;26.00;77.20;;;;;;5073912;28;20386;-59
2022/01/26 06:38:16;;;;;;;;;;;26.20;70.60;;;;;;5073910;28;20033;-60
2022/01/26 06:40:43;;;;;;;;;;;26.00;75.30;;;;;;5072666;28;19904;-59
2022/01/26 06:43:11;;;;;;;;;;;26.20;67.90;;;;;;5073482;28;19904;-60
2022/01/26 06:45:45;;;;;;;;;;;25.90;77.90;;;;;;5073871;28;20377;-60
2022/01/26 06:50:44;;;;;;;;;;;26.00;69.00;;;;;;5073488;28;19918;-54
2022/01/26 06:53:13;;;;;;;;;;;26.00;75.80;;;;;;5072940;28;19995;-63
2022/01/26 06:55:40;;;;;;;;;;;26.10;73.30;;;;;;5072870;28;19932;-59
2022/01/26 06:58:07;;;;;;;;;;;25.90;69.20;;;;;;5072993;28;19904;-59
2022/01/26 07:00:34;;;;;;;;;;;26.20;75.20;;;;;;5072857;28;19955;-60
2022/01/26 07:03:00;;;;;;;;;;;26.40;76.80;;;;;;5073039;28;20333;-52
2022/01/26 07:05:27;;;;;;;;;;;26.30;75.00;;;;;;5072856;28;19905;-55
2022/01/26 07:07:54;;;;;;;;;;;26.30;73.20;;;;;;5072816;28;19905;-58
2022/01/26 07:10:21;;;;;;;;;;;26.30;75.80;;;;;;5072968;28;19950;-61
2022/01/26 07:12:48;;;;;;;;;;;26.40;75.00;;;;;;5072315;28;19976;-58
2022/01/26 07:23:23;;;;;;;;;;;26.50;75.40;;;;;;5072224;28;19947;-57
2022/01/26 07:25:50;;;;;;;;;;;26.40;73.50;;;;;;5072010;28;19939;-59
2022/01/26 07:28:17;;;;;;;;;;;26.40;72.60;;;;;;5072172;28;19957;-56
2022/01/26 07:30:44;;;;;;;;;;;26.30;73.30;;;;;;5072318;28;19917;-57
2022/01/26 07:33:10;;;;;;;;;;;26.30;72.10;;;;;;5072004;28;20275;-55
2022/01/26 07:35:37;;;;;;;;;;;26.30;72.70;;;;;;5072379;28;19904;-57
2022/01/26 07:38:05;;;;;;;;;;;26.30;72.90;;;;;;5071034;28;20350;-56
2022/01/26 07:40:32;;;;;;;;;;;26.30;74.10;;;;;;5072539;28;19904;-57
2022/01/26 07:42:58;;;;;;;;;;;26.30;74.00;;;;;;5072104;28;20334;-55
2022/01/26 07:45:25;;;;;;;;;;;26.30;74.60;;;;;;5072619;28;20420;-56
2022/01/26 07:47:54;;;;;;;;;;;26.40;75.30;;;;;;5073766;28;19911;-57
2022/01/26 07:50:21;;;;;;;;;;;26.30;75.50;;;;;;5072716;28;19904;-56
2022/01/26 07:52:48;;;;;;;;;;;26.30;75.70;;;;;;5072233;28;19913;-50
2022/01/26 07:55:18;;;;;;;;;;;26.30;75.70;;;;;;5071956;28;19916;-57
2022/01/26 07:57:46;;;;;;;;;;;26.30;76.70;;;;;;5071950;28;19908;-56
2022/01/26 08:00:13;;;;;;;;;;;26.30;75.60;;;;;;5070422;28;19950;-52
2022/01/26 08:02:40;;;;;;;;;;;26.30;75.60;;;;;;5071603;28;19908;-55
2022/01/26 08:05:07;;;;;;;;;;;26.40;78.30;;;;;;5070433;28;20401;-58
2022/01/26 08:07:34;;;;;;;;;;;26.40;77.80;;;;;;5071957;28;19905;-54
2022/01/26 08:10:00;;;;;;;;;;;26.40;77.60;;;;;;5071906;28;19930;-56
2022/01/26 08:12:27;;;;;;;;;;;26.40;78.60;;;;;;5071316;28;20050;-60
2022/01/26 08:14:54;;;;;;;;;;;26.40;80.20;;;;;;5072061;28;19908;-59
2022/01/26 08:17:21;;;;;;;;;;;26.40;79.30;;;;;;5072256;28;20011;-63
2022/01/26 08:19:51;;;;;;;;;;;26.40;79.30;;;;;;5070684;28;19904;-59
2022/01/26 08:22:20;;;;;;;;;;;26.30;78.50;;;;;;5072309;28;19996;-63
2022/01/26 08:24:47;;;;;;;;;;;26.30;78.90;;;;;;5073599;28;19905;-61
2022/01/26 08:27:16;;;;;;;;;;;26.30;79.40;;;;;;5075479;28;20410;-63
2022/01/26 08:29:44;;;;;;;;;;;26.30;77.60;;;;;;5075726;28;19904;-62
2022/01/26 08:32:14;;;;;;;;;;;26.30;78.30;;;;;;5074404;28;19912;-62
2022/01/26 08:34:41;;;;;;;;;;;26.30;79.70;;;;;;5075709;28;20004;-61
2022/01/26 08:37:08;;;;;;;;;;;26.30;78.00;;;;;;5075092;28;20050;-64
2022/01/26 08:39:35;;;;;;;;;;;26.20;78.50;;;;;;5075394;28;19912;-61
2022/01/26 08:42:03;;;;;;;;;;;26.20;79.70;;;;;;5074688;28;19911;-62
2022/01/26 08:44:29;;;;;;;;;;;26.10;79.00;;;;;;5074169;28;20488;-63
2022/01/26 08:46:56;;;;;;;;;;;26.10;77.10;;;;;;5074867;28;20279;-64
2022/01/26 08:49:25;;;;;;;;;;;26.00;78.60;;;;;;5075279;28;19911;-61
2022/01/26 08:51:52;;;;;;;;;;;26.00;78.10;;;;;;5074684;28;20366;-61
2022/01/26 08:54:22;;;;;;;;;;;26.00;79.50;;;;;;5074995;28;19962;-62
2022/01/26 08:56:53;;;;;;;;;;;26.00;79.70;;;;;;5074871;28;20358;-60
2022/01/26 08:59:21;;;;;;;;;;;26.00;80.10;;;;;;5075166;28;20255;-59
2022/01/26 09:01:48;;;;;;;;;;;26.00;79.10;;;;;;5074605;28;20331;-64
2022/01/26 09:04:14;;;;;;;;;;;26.00;79.60;;;;;;5074862;28;19904;-65
2022/01/26 09:06:53;;;;;;;;;;;25.80;76.20;;;;;;5074682;28;19930;-51
2022/01/26 09:09:20;;;;;;;;;;;25.90;80.20;;;;;;5075205;28;19911;-50
2022/01/26 09:11:48;;;;;;;;;;;25.90;79.50;;;;;;5074941;28;20271;-49
2022/01/26 09:14:21;;;;;;;;;;;25.80;79.70;;;;;;5075032;28;20227;-55
2022/01/26 09:16:51;;;;;;;;;;;25.80;79.70;;;;;;5075372;28;19905;-51
2022/01/26 09:19:28;;;;;;;;;;;25.80;79.70;;;;;;5073424;28;19948;-61
2022/01/26 09:21:56;;;;;;;;;;;25.80;79.70;;;;;;5074506;28;19927;-60
2022/01/26 09:24:25;;;;;;;;;;;25.80;79.40;;;;;;5074535;28;19911;-62
2022/01/26 09:26:52;;;;;;;;;;;25.70;79.40;;;;;;5075273;28;20370;-60
2022/01/26 09:29:19;;;;;;;;;;;25.80;79.60;;;;;;5074946;28;20323;-58
2022/01/26 09:31:47;;;;;;;;;;;25.70;79.40;;;;;;5075260;28;20300;-54
2022/01/26 09:34:18;;;;;;;;;;;25.70;79.60;;;;;;5074788;28;19905;-58
2022/01/26 09:36:45;;;;;;;;;;;25.70;79.90;;;;;;5074168;28;19904;-61
2022/01/26 09:39:12;;;;;;;;;;;25.70;80.00;;;;;;5074773;28;20003;-62
2022/01/26 09:41:40;;;;;;;;;;;25.60;80.20;;;;;;5074605;28;19908;-57
2022/01/26 09:44:07;;;;;;;;;;;25.60;80.50;;;;;;5074636;28;19911;-60
2022/01/26 09:46:34;;;;;;;;;;;25.60;80.70;;;;;;5074317;28;20270;-60
2022/01/26 09:49:01;;;;;;;;;;;25.60;80.80;;;;;;5074426;28;19904;-59
2022/01/26 09:51:31;;;;;;;;;;;25.50;81.10;;;;;;5074249;28;20170;-60
2022/01/26 09:53:59;;;;;;;;;;;25.50;81.20;;;;;;5074039;28;19908;-58
2022/01/26 09:56:26;;;;;;;;;;;25.50;81.30;;;;;;5074143;28;19917;-59
2022/01/26 09:58:52;;;;;;;;;;;25.50;81.40;;;;;;5073767;28;19912;-62
2022/01/26 10:01:19;;;;;;;;;;;25.50;81.60;;;;;;5074139;28;19935;-60
2022/01/26 10:03:46;;;;;;;;;;;25.50;81.60;;;;;;5074043;28;19927;-54
2022/01/26 10:06:26;;;;;;;;;;;25.40;81.60;;;;;;5073464;28;19965;-59
2022/01/26 10:09:27;;;;;;;;;;;25.40;82.00;;;;;;5073802;28;19911;-61
2022/01/26 10:17:29;;;;;;;;;;;25.40;82.50;;;;;;5073952;28;19927;-57
2022/01/26 10:20:03;;;;;;;;;;;25.30;82.50;;;;;;5073648;28;20305;-56
2022/01/26 10:22:30;;;;;;;;;;;25.30;82.60;;;;;;5073664;28;19912;-60
2022/01/26 10:25:05;;;;;;;;;;;25.30;82.50;;;;;;5073678;28;20270;-58
2022/01/26 10:27:36;;;;;;;;;;;25.30;82.70;;;;;;5073375;28;19908;-58
2022/01/26 10:30:05;;;;;;;;;;;25.20;82.80;;;;;;5073534;28;19987;-54
2022/01/26 10:32:32;;;;;;;;;;;25.20;82.90;;;;;;5073766;28;20309;-54
2022/01/26 10:35:02;;;;;;;;;;;25.20;82.90;;;;;;5073412;28;19930;-60
2022/01/26 10:37:29;;;;;;;;;;;25.20;83.20;;;;;;5073305;28;20274;-56
2022/01/26 10:40:18;;;;;;;;;;;25.20;83.40;;;;;;5073162;28;19938;-62
2022/01/26 10:43:09;;;;;;;;;;;25.20;83.50;;;;;;5073262;28;19958;-58
2022/01/26 10:45:45;;;;;;;;;;;25.20;83.50;;;;;;5071549;28;19920;-61
2022/01/26 10:48:26;;;;;;;;;;;25.20;83.60;;;;;;5072682;28;19908;-60
2022/01/26 10:53:42;;;;;;;;;;;25.10;83.60;;;;;;5073344;28;19904;-58
2022/01/26 10:56:09;;;;;;;;;;;25.10;83.70;;;;;;5073082;28;19942;-56
2022/01/26 10:58:36;;;;;;;;;;;25.10;83.80;;;;;;5073165;28;19911;-57
2022/01/26 11:01:04;;;;;;;;;;;25.10;83.80;;;;;;5073315;28;19904;-57
2022/01/26 11:03:31;;;;;;;;;;;25.00;83.90;;;;;;5073442;28;20305;-59
2022/01/26 11:05:58;;;;;;;;;;;25.10;83.90;;;;;;5072074;28;19904;-58
2022/01/26 11:08:26;;;;;;;;;;;25.00;84.00;;;;;;5073740;28;20303;-62
2022/01/26 11:10:53;;;;;;;;;;;25.00;84.10;;;;;;5072183;28;19919;-62
2022/01/26 11:13:24;;;;;;;;;;;25.00;83.90;;;;;;5073423;28;20304;-60
2022/01/26 11:15:57;;;;;;;;;;;25.00;84.00;;;;;;5073467;28;20359;-63
2022/01/26 11:18:29;;;;;;;;;;;25.00;84.00;;;;;;5073293;28;19911;-59
2022/01/26 11:20:56;;;;;;;;;;;25.00;84.20;;;;;;5071963;28;19904;-60
2022/01/26 11:23:40;;;;;;;;;;;25.00;84.30;;;;;;5073096;28;19916;-57
2022/01/26 11:26:07;;;;;;;;;;;25.00;85.00;;;;;;5073214;28;19911;-52
2022/01/26 11:28:45;;;;;;;;;;;25.00;84.30;;;;;;5073268;28;19904;-59
2022/01/26 11:31:15;;;;;;;;;;;24.90;84.40;;;;;;5072971;28;19908;-59
2022/01/26 11:33:44;;;;;;;;;;;24.90;84.50;;;;;;5072870;28;20305;-56
2022/01/26 11:36:14;;;;;;;;;;;24.90;84.40;;;;;;5072809;28;19984;-51
2022/01/26 11:47:04;;;;;;;;;;;24.90;84.60;;;;;;5073464;28;19911;-61
2022/01/26 11:49:35;;;;;;;;;;;24.90;84.60;;;;;;5072790;28;19905;-59
2022/01/26 11:52:02;;;;;;;;;;;24.90;84.60;;;;;;5072932;28;19912;-59
2022/01/26 11:54:40;;;;;;;;;;;24.90;84.60;;;;;;5073107;28;19908;-55
2022/01/26 11:57:12;;;;;;;;;;;24.90;84.80;;;;;;5073173;28;19961;-61
2022/01/26 11:59:50;;;;;;;;;;;24.90;84.80;;;;;;5075759;28;19954;-59
2022/01/26 12:02:35;;;;;;;;;;;24.80;84.90;;;;;;5077558;28;19904;-57
2022/01/26 12:05:06;;;;;;;;;;;24.80;84.80;;;;;;5075195;28;19904;-58
2022/01/26 12:07:33;;;;;;;;;;;24.80;84.80;;;;;;5076571;28;19908;-61
2022/01/26 12:10:03;;;;;;;;;;;24.80;84.80;;;;;;5077717;28;19958;-55
2022/01/26 12:12:30;;;;;;;;;;;24.80;85.00;;;;;;5077354;28;20347;-58
2022/01/26 12:15:03;;;;;;;;;;;24.80;84.90;;;;;;5077616;28;19931;-60
2022/01/26 12:17:35;;;;;;;;;;;24.80;84.80;;;;;;5076902;28;20354;-56
2022/01/26 12:42:13;;;;;;;;;;;24.70;84.90;;;;;;5075972;28;19974;-58
2022/01/26 12:44:40;;;;;;;;;;;24.70;84.90;;;;;;5075902;28;19908;-60
2022/01/26 12:47:06;;;;;;;;;;;24.70;84.90;;;;;;5076139;28;19963;-57
2022/01/26 12:49:33;;;;;;;;;;;24.60;84.90;;;;;;5075876;28;19916;-52
2022/01/26 12:52:01;;;;;;;;;;;24.60;85.10;;;;;;5075675;28;20054;-58
2022/01/26 12:54:28;;;;;;;;;;;24.60;85.20;;;;;;5076422;28;20062;-57
2022/01/26 12:57:06;;;;;;;;;;;24.60;85.20;;;;;;5075519;28;19916;-59
2022/01/26 12:59:33;;;;;;;;;;;24.60;85.10;;;;;;5076143;28;20339;-59
2022/01/26 13:01:59;;;;;;;;;;;24.60;85.10;;;;;;5075511;28;20353;-56
2022/01/26 13:04:27;;;;;;;;;;;24.60;85.00;;;;;;5075378;28;19905;-60
2022/01/26 13:06:53;;;;;;;;;;;24.60;85.10;;;;;;5075783;28;20350;-61
2022/01/26 13:09:27;;;;;;;;;;;24.60;85.10;;;;;;5075920;28;19905;-56
2022/01/26 13:11:57;;;;;;;;;;;24.60;84.90;;;;;;5074302;28;19919;-58
2022/01/26 13:14:31;;;;;;;;;;;24.60;85.20;;;;;;5075524;28;20277;-58
2022/01/26 13:23:06;;;;;;;;;;;24.60;85.00;;;;;;5075539;28;19950;-58
2022/01/26 13:36:42;;;;;;;;;;;24.60;85.10;;;;;;5075049;28;19908;-55
2022/01/26 13:39:34;;;;;;;;;;;24.50;85.00;;;;;;5074942;28;19995;-57
2022/01/26 13:42:32;;;;;;;;;;;24.50;85.00;;;;;;5074741;28;19915;-56
2022/01/26 13:52:52;;;;;;;;;;;24.50;84.80;;;;;;5074788;28;19965;-54
2022/01/26 14:00:41;;;;;;;;;;;24.50;84.90;;;;;;5074406;28;19905;-57
2022/01/26 14:03:11;;;;;;;;;;;24.50;84.90;;;;;;5074425;28;19904;-54
2022/01/26 14:05:38;;;;;;;;;;;24.50;84.60;;;;;;5074384;28;20003;-57
2022/01/26 14:08:05;;;;;;;;;;;24.50;84.90;;;;;;5073803;28;20419;-56
2022/01/26 14:10:33;;;;;;;;;;;24.50;84.80;;;;;;5072799;28;19909;-57
2022/01/26 14:13:00;;;;;;;;;;;24.40;84.90;;;;;;5074399;28;20282;-52
2022/01/26 14:15:39;;;;;;;;;;;24.50;84.70;;;;;;5074059;28;19904;-57
2022/01/26 14:21:07;;;;;;;;;;;24.40;85.00;;;;;;5074416;28;19911;-58
2022/01/26 14:26:22;;;;;;;;;;;24.40;84.90;;;;;;5074240;28;19904;-50
2022/01/26 14:28:49;;;;;;;;;;;24.40;84.90;;;;;;5074142;28;20292;-52
2022/01/26 14:34:09;;;;;;;;;;;24.40;84.80;;;;;;5074284;28;19904;-59
2022/01/26 14:36:50;;;;;;;;;;;24.40;84.80;;;;;;5072393;28;19953;-44
2022/01/26 14:55:53;;;;;;;;;;;24.30;84.60;;;;;;5072794;28;19913;-57
2022/01/26 15:08:42;;;;;;;;;;;24.30;84.60;;;;;;5073711;28;20266;-58
2022/01/26 15:19:04;;;;;;;;;;;24.30;84.70;;;;;;5072701;28;19920;-57
2022/01/26 15:31:46;;;;;;;;;;;24.20;84.90;;;;;;5073033;28;19915;-60
2022/01/26 15:34:07;;;;;;;;;;;24.20;84.90;;;;;;5073682;28;20324;-57
2022/01/26 15:42:26;;;;;;;;;;;24.20;85.10;;;;;;5076569;28;20263;-53
2022/01/26 15:58:24;;;;;;;;;;;24.10;85.20;;;;;;5076598;28;20456;-55
2022/01/26 16:06:28;;;;;;;;;;;24.10;85.20;;;;;;5076547;28;20381;-58
2022/01/26 18:38:40;;;;;;;;;;;23.90;84.30;;;;;;5074331;28;19958;-58
2022/01/26 18:49:32;;;;;;;;;;;23.80;84.40;;;;;;5073388;28;19912;-59
2022/01/26 18:51:59;;;;;;;;;;;23.80;84.40;;;;;;5072937;28;19920;-56
2022/01/26 18:54:28;;;;;;;;;;;23.80;84.50;;;;;;5073074;28;20382;-57
2022/01/26 18:56:55;;;;;;;;;;;23.80;84.50;;;;;;5073142;28;20389;-53
2022/01/26 18:59:22;;;;;;;;;;;23.80;84.50;;;;;;5073102;28;19998;-57
2022/01/26 19:01:51;;;;;;;;;;;23.80;84.50;;;;;;5073590;28;20329;-53
2022/01/26 19:04:25;;;;;;;;;;;23.80;84.50;;;;;;5073448;28;20380;-49
2022/01/26 19:06:53;;;;;;;;;;;23.80;85.10;;;;;;5072028;28;20016;-56
2022/01/26 19:09:29;;;;;;;;;;;23.80;85.10;;;;;;5071999;28;19995;-57
2022/01/26 19:11:56;;;;;;;;;;;23.80;84.50;;;;;;5072865;28;20015;-54
2022/01/26 19:14:26;;;;;;;;;;;23.80;84.50;;;;;;5073025;28;19958;-57
2022/01/26 19:17:03;;;;;;;;;;;23.70;84.40;;;;;;5073481;28;19904;-56
2022/01/26 19:27:00;;;;;;;;;;;23.70;84.40;;;;;;5072322;28;20309;-51
2022/01/26 19:32:41;;;;;;;;;;;23.70;84.50;;;;;;5062285;28;19912;-58
2022/01/26 19:43:37;;;;;;;;;;;23.70;84.60;;;;;;5073131;28;19911;-59
2022/01/26 19:46:28;;;;;;;;;;;23.70;84.70;;;;;;5072218;28;19905;-53
2022/01/26 19:52:07;;;;;;;;;;;23.70;84.70;;;;;;5071994;28;20316;-59
2022/01/26 19:54:26;;;;;;;;;;;23.70;84.60;;;;;;5071383;28;19904;-56
2022/01/26 19:56:53;;;;;;;;;;;23.60;84.50;;;;;;5072011;28;19966;-52
2022/01/26 19:59:20;;;;;;;;;;;23.70;84.60;;;;;;5072169;28;20261;-55
2022/01/26 20:01:47;;;;;;;;;;;23.70;84.60;;;;;;5071697;28;19942;-56
2022/01/26 20:04:13;;;;;;;;;;;23.70;84.60;;;;;;5072420;28;20034;-56
2022/01/26 20:06:41;;;;;;;;;;;23.70;84.50;;;;;;5072286;28;19916;-48
2022/01/26 20:09:22;;;;;;;;;;;23.70;84.50;;;;;;5072285;28;19920;-56
2022/01/26 20:11:59;;;;;;;;;;;23.70;84.70;;;;;;5072368;28;19968;-54
2022/01/26 20:14:32;;;;;;;;;;;23.70;84.60;;;;;;5072011;28;19904;-56
2022/01/26 20:17:00;;;;;;;;;;;23.70;84.60;;;;;;5072331;28;19908;-60
2022/01/26 20:19:27;;;;;;;;;;;23.70;84.50;;;;;;5072368;28;20355;-57
2022/01/26 20:21:54;;;;;;;;;;;23.60;84.50;;;;;;5075956;28;19905;-54
2022/01/26 20:24:21;;;;;;;;;;;23.70;84.60;;;;;;5075479;28;19930;-52
2022/01/26 20:26:50;;;;;;;;;;;23.60;84.60;;;;;;5075521;28;19911;-53
2022/01/26 20:29:18;;;;;;;;;;;23.70;84.60;;;;;;5074027;28;20317;-55
2022/01/26 20:31:45;;;;;;;;;;;23.70;84.70;;;;;;5075429;28;20013;-53
2022/01/26 20:34:14;;;;;;;;;;;23.70;84.70;;;;;;5075755;28;20351;-52
2022/01/26 20:36:42;;;;;;;;;;;23.70;84.70;;;;;;5075886;28;20411;-53
2022/01/26 20:39:08;;;;;;;;;;;23.70;84.70;;;;;;5075409;28;20378;-53
2022/01/26 20:41:35;;;;;;;;;;;23.70;84.70;;;;;;5075298;28;20413;-55
2022/01/26 20:44:03;;;;;;;;;;;23.70;84.70;;;;;;5075051;28;20001;-56
2022/01/26 20:46:29;;;;;;;;;;;23.70;84.70;;;;;;5075771;28;20281;-53
2022/01/26 20:48:56;;;;;;;;;;;23.70;84.80;;;;;;5074283;28;19904;-54
2022/01/26 20:51:23;;;;;;;;;;;23.70;84.60;;;;;;5075683;28;19909;-53
2022/01/26 20:53:50;;;;;;;;;;;23.70;84.60;;;;;;5075376;28;19909;-57
2022/01/26 20:56:17;;;;;;;;;;;23.70;84.50;;;;;;5075243;28;20007;-57
2022/01/26 20:58:45;;;;;;;;;;;23.70;84.50;;;;;;5076131;28;19915;-54
2022/01/26 21:01:12;;;;;;;;;;;23.70;84.40;;;;;;5076758;28;20342;-60
2022/01/26 21:03:39;;;;;;;;;;;23.80;84.50;;;;;;5075783;28;19965;-51
2022/01/26 21:06:06;;;;;;;;;;;23.80;84.40;;;;;;5075319;28;19904;-59
2022/01/26 21:08:33;;;;;;;;;;;23.80;84.20;;;;;;5074111;28;19937;-54
2022/01/26 21:11:00;;;;;;;;;;;23.80;84.20;;;;;;5075798;28;19965;-57
2022/01/26 21:13:26;;;;;;;;;;;23.80;84.20;;;;;;5075018;28;20354;-57
2022/01/26 21:15:53;;;;;;;;;;;23.80;84.10;;;;;;5075144;28;19904;-57
2022/01/26 21:18:20;;;;;;;;;;;23.90;84.00;;;;;;5075054;28;19904;-55
2022/01/26 21:20:47;;;;;;;;;;;23.90;84.00;;;;;;5074543;28;19928;-60
2022/01/26 21:23:13;;;;;;;;;;;23.90;83.90;;;;;;5074772;28;20001;-58
2022/01/26 21:25:41;;;;;;;;;;;23.90;83.80;;;;;;5074817;28;19997;-58
2022/01/26 21:28:07;;;;;;;;;;;23.90;83.80;;;;;;5075050;28;20330;-53
2022/01/26 21:30:34;;;;;;;;;;;24.00;83.80;;;;;;5074775;28;20034;-55
2022/01/26 21:33:02;;;;;;;;;;;24.00;83.70;;;;;;5073696;28;19916;-54
2022/01/26 21:35:29;;;;;;;;;;;24.00;83.70;;;;;;5074441;28;19912;-54
2022/01/26 21:37:57;;;;;;;;;;;24.00;83.60;;;;;;5073649;28;19905;-57